createdAt,value
2022-07-29T00:00:03.837Z,72.24
2022-07-29T00:01:04.787Z,71.44
2022-07-29T00:02:04.766Z,71.17
2022-07-29T00:03:04.502Z,71.37
2022-07-29T00:04:04.725Z,71.77
2022-07-29T00:05:05.770Z,71.57
2022-07-29T00:06:04.885Z,71.77
2022-07-29T00:07:05.035Z,71.47
2022-07-29T00:08:09.402Z,72.47
2022-07-29T00:09:07.787Z,71.84
2022-07-29T00:10:05.520Z,72.14
2022-07-29T00:11:05.679Z,71.94
2022-07-29T00:12:06.775Z,73.05
2022-07-29T00:13:06.082Z,73.05
2022-07-29T00:14:06.246Z,72.47
2022-07-29T00:15:06.427Z,72.38
2022-07-29T00:16:07.337Z,72.58
2022-07-29T00:17:07.273Z,72.47
2022-07-29T00:18:06.907Z,71.67
2022-07-29T00:19:08.012Z,71.57
2022-07-29T00:20:07.271Z,71.67
2022-07-29T00:21:08.276Z,71.67
2022-07-29T00:22:08.277Z,71.47
2022-07-29T00:23:08.277Z,71.70
2022-07-29T00:24:08.894Z,71.80
2022-07-29T00:25:08.133Z,71.70
2022-07-29T00:26:08.786Z,71.50
2022-07-29T00:27:08.405Z,71.91
2022-07-29T00:28:08.534Z,71.70
2022-07-29T00:30:10.893Z,72.41
2022-07-29T00:31:09.364Z,72.51
2022-07-29T00:32:09.256Z,71.91
2022-07-29T00:33:09.492Z,72.61
2022-07-29T00:34:09.627Z,71.70
2022-07-29T00:35:10.278Z,72.41
2022-07-29T00:36:10.289Z,72.41
2022-07-29T00:37:10.031Z,72.41
2022-07-29T00:38:10.275Z,72.31
2022-07-29T00:39:10.424Z,72.51
2022-07-29T00:40:11.283Z,72.11
2022-07-29T00:41:10.772Z,72.41
2022-07-29T00:42:10.971Z,72.20
2022-07-29T00:43:11.132Z,72.20
2022-07-29T00:44:11.305Z,72.61
2022-07-29T00:45:11.466Z,72.71
2022-07-29T00:46:11.682Z,72.51
2022-07-29T00:47:11.901Z,72.34
2022-07-29T00:48:11.953Z,72.54
2022-07-29T00:49:13.164Z,72.71
2022-07-29T00:50:12.269Z,72.91
2022-07-29T00:51:12.396Z,72.31
2022-07-29T00:52:12.515Z,72.20
2022-07-29T00:53:12.728Z,72.31
2022-07-29T00:54:13.982Z,72.51
2022-07-29T00:55:13.800Z,72.51
2022-07-29T00:56:13.392Z,72.51
2022-07-29T00:57:13.521Z,72.51
2022-07-29T00:58:13.639Z,72.31
2022-07-29T00:59:13.801Z,72.61
2022-07-29T01:00:13.934Z,72.27
2022-07-29T01:01:14.183Z,72.51
2022-07-29T01:02:14.303Z,71.30
2022-07-29T01:03:14.370Z,72.11
2022-07-29T01:04:14.715Z,72.41
2022-07-29T01:05:14.646Z,72.81
2022-07-29T01:06:14.906Z,72.34
2022-07-29T01:07:15.312Z,73.25
2022-07-29T01:08:15.796Z,72.71
2022-07-29T01:09:16.291Z,73.25
2022-07-29T01:10:17.289Z,73.45
2022-07-29T01:11:15.865Z,73.69
2022-07-29T01:12:16.015Z,74.19
2022-07-29T01:13:16.795Z,73.99
2022-07-29T01:14:17.245Z,74.29
2022-07-29T01:15:17.313Z,74.33
2022-07-29T01:16:16.755Z,74.73
2022-07-29T01:17:16.899Z,74.84
2022-07-29T01:18:18.212Z,74.40
2022-07-29T01:19:18.793Z,74.93
2022-07-29T01:20:17.432Z,75.24
2022-07-29T01:21:17.803Z,75.04
2022-07-29T01:22:18.304Z,74.53
2022-07-29T01:23:18.795Z,74.29
2022-07-29T01:24:18.424Z,75.04
2022-07-29T01:25:18.305Z,75.04
2022-07-29T01:26:20.446Z,75.24
2022-07-29T01:27:18.719Z,75.04
2022-07-29T01:28:18.828Z,74.93
2022-07-29T01:29:19.797Z,75.13
2022-07-29T01:30:19.209Z,75.54
2022-07-29T01:31:20.404Z,75.20
2022-07-29T01:32:28.335Z,75.74
2022-07-29T01:33:20.677Z,76.35
2022-07-29T01:34:19.806Z,76.45
2022-07-29T01:35:19.986Z,77.06
2022-07-29T01:36:20.800Z,76.69
2022-07-29T01:37:20.340Z,76.65
2022-07-29T01:38:21.325Z,76.15
2022-07-29T01:39:20.728Z,76.55
2022-07-29T01:40:20.886Z,76.95
2022-07-29T01:41:21.044Z,76.45
2022-07-29T01:42:21.239Z,75.44
2022-07-29T01:43:21.454Z,74.22
2022-07-29T01:44:22.302Z,74.93
2022-07-29T01:45:21.844Z,75.24
2022-07-29T01:46:22.052Z,73.93
2022-07-29T01:47:22.803Z,74.09
2022-07-29T01:48:22.477Z,74.09
2022-07-29T01:49:23.360Z,74.29
2022-07-29T01:50:22.810Z,74.09
2022-07-29T01:51:22.991Z,75.16
2022-07-29T01:52:23.807Z,75.27
2022-07-29T01:53:23.819Z,75.57
2022-07-29T01:54:24.313Z,75.27
2022-07-29T01:55:23.581Z,74.87
2022-07-29T01:56:23.767Z,71.84
2022-07-29T01:57:23.957Z,71.06
2022-07-29T01:58:24.312Z,71.26
2022-07-29T01:59:24.370Z,70.86
2022-07-29T02:00:24.538Z,71.47
2022-07-29T02:01:24.748Z,71.77
2022-07-29T02:02:24.949Z,71.77
2022-07-29T02:03:25.120Z,71.97
2022-07-29T02:04:29.149Z,72.68
2022-07-29T02:05:26.480Z,72.07
2022-07-29T02:06:25.558Z,72.88
2022-07-29T02:07:25.714Z,73.38
2022-07-29T02:08:25.856Z,74.02
2022-07-29T02:09:26.830Z,73.69
2022-07-29T02:10:26.386Z,73.49
2022-07-29T02:11:27.310Z,73.72
2022-07-29T02:12:26.607Z,73.02
2022-07-29T02:13:26.776Z,73.11
2022-07-29T02:14:27.341Z,72.21
2022-07-29T02:15:27.812Z,71.70
2022-07-29T02:16:28.341Z,71.91
2022-07-29T02:17:27.573Z,72.00
2022-07-29T02:18:27.769Z,72.61
2022-07-29T02:19:27.982Z,72.71
2022-07-29T02:20:28.843Z,72.51
2022-07-29T02:21:28.392Z,72.00
2022-07-29T02:22:29.339Z,68.95
2022-07-29T02:23:28.758Z,68.10
2022-07-29T02:24:28.972Z,67.90
2022-07-29T02:25:37.074Z,67.16
2022-07-29T02:26:30.844Z,67.77
2022-07-29T02:27:29.457Z,69.68
2022-07-29T02:28:30.315Z,71.40
2022-07-29T02:29:29.836Z,72.47
2022-07-29T02:30:29.984Z,72.91
2022-07-29T02:31:30.188Z,71.91
2022-07-29T02:32:31.316Z,71.91
2022-07-29T02:33:30.567Z,71.40
2022-07-29T02:34:30.836Z,71.40
2022-07-29T02:35:34.684Z,71.84
2022-07-29T02:36:31.100Z,72.24
2022-07-29T02:37:31.842Z,72.64
2022-07-29T02:38:31.486Z,67.90
2022-07-29T02:39:31.641Z,64.04
2022-07-29T02:40:31.770Z,66.53
2022-07-29T02:41:32.349Z,63.98
2022-07-29T02:42:32.824Z,67.91
2022-07-29T02:43:32.830Z,62.46
2022-07-29T02:44:34.766Z,63.34
2022-07-29T02:45:33.593Z,63.62
2022-07-29T02:46:32.889Z,63.11
2022-07-29T02:47:41.861Z,61.30
2022-07-29T02:48:34.159Z,63.31
2022-07-29T02:49:33.396Z,60.89
2022-07-29T02:50:33.533Z,60.49
2022-07-29T02:51:43.554Z,60.24
2022-07-29T02:52:34.831Z,60.24
2022-07-29T02:53:34.959Z,58.62
2022-07-29T02:54:34.185Z,61.94
2022-07-29T02:55:34.425Z,62.85
2022-07-29T02:56:34.601Z,64.19
2022-07-29T02:57:34.842Z,64.32
2022-07-29T02:58:34.953Z,65.02
2022-07-29T02:59:35.827Z,64.82
2022-07-29T03:00:35.882Z,65.36
2022-07-29T03:01:35.399Z,64.75
2022-07-29T03:02:35.544Z,61.93
2022-07-29T03:03:36.323Z,65.26
2022-07-29T03:04:36.387Z,64.55
2022-07-29T03:05:36.039Z,61.80
2022-07-29T03:06:38.258Z,59.86
2022-07-29T03:07:36.368Z,59.13
2022-07-29T03:08:36.528Z,58.70
2022-07-29T03:09:36.680Z,58.60
2022-07-29T03:10:36.870Z,58.50
2022-07-29T03:11:45.867Z,58.40
2022-07-29T03:12:38.231Z,58.67
2022-07-29T03:13:37.369Z,59.70
2022-07-29T03:14:37.507Z,59.41
2022-07-29T03:15:37.888Z,60.11
2022-07-29T03:16:41.274Z,61.65
2022-07-29T03:17:39.824Z,62.15
2022-07-29T03:18:39.205Z,62.38
2022-07-29T03:19:38.311Z,62.78
2022-07-29T03:20:38.494Z,62.78
2022-07-29T03:21:39.326Z,63.39
2022-07-29T03:22:39.833Z,63.68
2022-07-29T03:23:38.959Z,64.52
2022-07-29T03:25:12.553Z,64.42
2022-07-29T03:25:39.378Z,64.92
2022-07-29T03:26:39.409Z,65.22
2022-07-29T03:27:40.358Z,65.83
2022-07-29T03:28:40.359Z,65.73
2022-07-29T03:29:40.862Z,65.96
2022-07-29T03:30:41.133Z,65.76
2022-07-29T03:31:40.415Z,66.27
2022-07-29T03:32:41.361Z,66.56
2022-07-29T03:33:40.629Z,66.77
2022-07-29T03:34:40.816Z,66.77
2022-07-29T03:35:41.392Z,66.67
2022-07-29T03:36:41.178Z,66.77
2022-07-29T03:37:41.355Z,66.56
2022-07-29T03:38:41.518Z,66.67
2022-07-29T03:39:42.364Z,66.77
2022-07-29T03:40:41.916Z,66.56
2022-07-29T03:41:42.097Z,66.77
2022-07-29T03:42:42.864Z,66.67
2022-07-29T03:43:49.224Z,65.83
2022-07-29T03:44:43.684Z,65.42
2022-07-29T03:45:43.368Z,64.79
2022-07-29T03:46:43.919Z,63.89
2022-07-29T03:47:50.863Z,62.85
2022-07-29T03:48:44.449Z,62.52
2022-07-29T03:49:44.366Z,62.32
2022-07-29T03:50:44.370Z,62.08
2022-07-29T03:51:44.868Z,61.82
2022-07-29T03:52:45.393Z,61.88
2022-07-29T03:53:44.403Z,60.61
2022-07-29T03:54:44.327Z,61.51
2022-07-29T03:55:44.494Z,61.88
2022-07-29T03:56:44.662Z,62.42
2022-07-29T03:57:44.821Z,61.82
2022-07-29T03:58:45.003Z,61.82
2022-07-29T03:59:45.185Z,61.61
2022-07-29T04:00:45.363Z,60.91
2022-07-29T04:01:45.649Z,60.31
2022-07-29T04:02:46.371Z,60.61
2022-07-29T04:03:45.950Z,60.31
2022-07-29T04:04:46.039Z,60.51
2022-07-29T04:05:46.256Z,59.10
2022-07-29T04:06:46.450Z,59.50
2022-07-29T04:07:47.370Z,59.20
2022-07-29T04:08:47.876Z,58.87
2022-07-29T04:09:47.038Z,58.27
2022-07-29T04:10:47.255Z,58.47
2022-07-29T04:12:01.735Z,59.08
2022-07-29T04:12:48.579Z,58.57
2022-07-29T04:13:47.727Z,58.77
2022-07-29T04:14:47.929Z,57.77
2022-07-29T04:15:48.213Z,57.06
2022-07-29T04:16:48.347Z,56.93
2022-07-29T04:17:48.528Z,57.04
2022-07-29T04:18:48.662Z,57.04
2022-07-29T04:19:49.373Z,56.63
2022-07-29T04:20:49.055Z,56.43
2022-07-29T04:21:49.875Z,56.43
2022-07-29T04:22:49.879Z,56.43
2022-07-29T04:23:53.069Z,56.74
2022-07-29T04:24:49.651Z,56.43
2022-07-29T04:25:49.812Z,56.74
2022-07-29T04:26:49.993Z,57.14
2022-07-29T04:27:50.209Z,56.63
2022-07-29T04:28:50.339Z,56.84
2022-07-29T04:29:56.711Z,56.63
2022-07-29T04:30:51.710Z,56.74
2022-07-29T04:31:51.379Z,56.71
2022-07-29T04:32:51.393Z,56.61
2022-07-29T04:33:51.199Z,56.63
2022-07-29T04:34:51.886Z,56.63
2022-07-29T04:35:52.672Z,56.84
2022-07-29T04:36:52.405Z,57.24
2022-07-29T04:37:52.901Z,57.24
2022-07-29T04:38:52.135Z,57.24
2022-07-29T04:39:52.297Z,57.14
2022-07-29T04:40:52.463Z,57.34
2022-07-29T04:41:56.363Z,57.24
2022-07-29T04:42:53.398Z,56.34
2022-07-29T04:43:53.411Z,56.43
2022-07-29T04:44:53.177Z,56.41
2022-07-29T04:45:53.954Z,57.11
2022-07-29T04:46:53.488Z,57.34
2022-07-29T04:47:53.659Z,59.12
2022-07-29T04:48:53.899Z,58.54
2022-07-29T04:49:53.995Z,58.84
2022-07-29T04:50:54.883Z,58.47
2022-07-29T04:51:54.409Z,58.87
2022-07-29T04:52:54.575Z,59.30
2022-07-29T04:53:55.386Z,60.38
2022-07-29T04:54:55.400Z,60.48
2022-07-29T04:55:55.895Z,59.08
2022-07-29T04:56:55.891Z,58.57
2022-07-29T04:57:55.380Z,58.07
2022-07-29T04:58:56.398Z,58.57
2022-07-29T04:59:55.796Z,60.28
2022-07-29T05:00:55.956Z,60.28
2022-07-29T05:01:56.186Z,61.99
2022-07-29T05:02:56.345Z,62.69
2022-07-29T05:04:00.438Z,64.23
2022-07-29T05:04:57.903Z,65.03
2022-07-29T05:05:56.899Z,65.47
2022-07-29T05:06:57.913Z,66.57
2022-07-29T05:07:57.329Z,66.91
2022-07-29T05:08:57.488Z,67.74
2022-07-29T05:09:58.402Z,68.31
2022-07-29T05:10:57.832Z,68.44
2022-07-29T05:11:58.422Z,69.35
2022-07-29T05:12:58.191Z,69.38
2022-07-29T05:13:58.402Z,69.29
2022-07-29T05:14:58.558Z,69.79
2022-07-29T05:15:58.825Z,70.29
2022-07-29T05:16:59.431Z,70.53
2022-07-29T05:17:59.895Z,71.03
2022-07-29T05:18:59.301Z,71.33
2022-07-29T05:19:59.470Z,71.03
2022-07-29T05:20:59.913Z,71.23
2022-07-29T05:21:59.793Z,71.64
2022-07-29T05:23:00.898Z,71.64
2022-07-29T05:24:00.144Z,71.64
2022-07-29T05:25:02.317Z,71.77
2022-07-29T05:26:01.449Z,71.47
2022-07-29T05:27:00.668Z,71.64
2022-07-29T05:28:01.402Z,71.64
2022-07-29T05:29:01.024Z,71.87
2022-07-29T05:30:01.922Z,71.84
2022-07-29T05:31:01.993Z,71.64
2022-07-29T05:32:01.531Z,71.64
2022-07-29T05:33:01.771Z,71.44
2022-07-29T05:34:01.821Z,71.73
2022-07-29T05:35:01.999Z,71.23
2022-07-29T05:36:02.422Z,71.77
2022-07-29T05:37:02.322Z,71.77
2022-07-29T05:38:03.525Z,71.13
2022-07-29T05:39:03.406Z,71.33
2022-07-29T05:40:02.776Z,72.44
2022-07-29T05:41:03.415Z,72.47
2022-07-29T05:42:03.077Z,72.17
2022-07-29T05:43:03.231Z,72.34
2022-07-29T05:44:03.371Z,72.44
2022-07-29T05:45:04.406Z,71.94
2022-07-29T05:46:03.712Z,72.85
2022-07-29T05:47:03.910Z,72.04
2022-07-29T05:48:04.063Z,72.17
2022-07-29T05:49:04.219Z,72.51
2022-07-29T05:50:04.351Z,71.57
2022-07-29T05:51:04.466Z,72.17
2022-07-29T05:52:04.648Z,71.91
2022-07-29T05:53:18.909Z,71.60
2022-07-29T05:54:06.912Z,71.73
2022-07-29T05:55:05.425Z,72.51
2022-07-29T05:56:05.324Z,72.54
2022-07-29T05:57:06.434Z,72.54
2022-07-29T05:58:05.651Z,72.54
2022-07-29T05:59:05.814Z,71.84
2022-07-29T06:00:07.432Z,72.24
2022-07-29T06:01:06.964Z,72.54
2022-07-29T06:02:06.935Z,72.54
2022-07-29T06:03:06.432Z,72.34
2022-07-29T06:04:06.662Z,72.61
2022-07-29T06:05:06.701Z,72.24
2022-07-29T06:06:07.948Z,72.04
2022-07-29T06:07:07.181Z,72.54
2022-07-29T06:08:07.909Z,72.34
2022-07-29T06:09:11.556Z,72.44
2022-07-29T06:10:08.419Z,72.04
2022-07-29T06:11:08.429Z,72.31
2022-07-29T06:12:08.042Z,72.51
2022-07-29T06:13:08.179Z,72.24
2022-07-29T06:14:08.284Z,72.61
2022-07-29T06:15:09.411Z,72.31
2022-07-29T06:16:08.738Z,72.20
2022-07-29T06:17:09.415Z,72.07
2022-07-29T06:18:09.078Z,71.60
2022-07-29T06:19:09.592Z,71.10
2022-07-29T06:20:10.802Z,71.00
2022-07-29T06:21:10.565Z,71.10
2022-07-29T06:22:10.443Z,70.86
2022-07-29T06:23:09.947Z,71.40
2022-07-29T06:24:10.948Z,71.30
2022-07-29T06:25:10.296Z,71.47
2022-07-29T06:26:11.416Z,70.89
2022-07-29T06:27:10.658Z,70.29
2022-07-29T06:28:10.939Z,70.89
2022-07-29T06:29:11.931Z,70.36
2022-07-29T06:30:11.182Z,71.10
2022-07-29T06:31:12.042Z,71.17
2022-07-29T06:32:11.931Z,71.47
2022-07-29T06:33:11.710Z,71.26
2022-07-29T06:34:11.855Z,71.06
2022-07-29T06:35:37.649Z,70.76
2022-07-29T06:36:14.144Z,71.47
2022-07-29T06:37:15.670Z,71.26
2022-07-29T06:38:30.191Z,71.06
2022-07-29T06:39:13.905Z,71.26
2022-07-29T06:40:12.898Z,71.47
2022-07-29T06:41:13.439Z,71.37
2022-07-29T06:42:13.925Z,71.37
2022-07-29T06:43:13.409Z,70.66
2022-07-29T06:44:14.757Z,71.06
2022-07-29T06:45:14.441Z,70.97
2022-07-29T06:46:13.966Z,70.76
2022-07-29T06:47:14.020Z,70.73
2022-07-29T06:48:14.923Z,70.46
2022-07-29T06:49:14.348Z,70.46
2022-07-29T06:50:14.415Z,70.46
2022-07-29T06:51:14.625Z,71.00
2022-07-29T06:52:14.775Z,70.26
2022-07-29T06:53:15.424Z,71.06
2022-07-29T06:54:15.361Z,70.46
2022-07-29T06:55:24.912Z,70.46
2022-07-29T06:56:16.404Z,71.17
2022-07-29T06:57:15.648Z,69.65
2022-07-29T06:58:16.427Z,70.06
2022-07-29T06:59:16.949Z,70.06
2022-07-29T07:00:16.042Z,71.23
2022-07-29T07:01:16.254Z,70.93
2022-07-29T07:02:16.433Z,70.83
2022-07-29T07:03:16.524Z,70.93
2022-07-29T07:04:17.857Z,69.92
2022-07-29T07:05:16.831Z,69.01
2022-07-29T07:06:16.987Z,69.05
2022-07-29T07:07:17.133Z,69.15
2022-07-29T07:08:17.281Z,69.95
2022-07-29T07:09:17.456Z,70.46
2022-07-29T07:10:17.599Z,69.65
2022-07-29T07:11:17.752Z,69.89
2022-07-29T07:12:17.913Z,71.06
2022-07-29T07:13:18.106Z,70.86
2022-07-29T07:14:19.210Z,71.06
2022-07-29T07:15:19.438Z,71.47
2022-07-29T07:16:19.589Z,71.47
2022-07-29T07:17:18.869Z,71.17
2022-07-29T07:18:19.037Z,71.26
2022-07-29T07:19:19.934Z,71.44
2022-07-29T07:20:19.325Z,71.53
2022-07-29T07:21:20.433Z,71.33
2022-07-29T07:22:19.674Z,72.04
2022-07-29T07:23:20.464Z,71.64
2022-07-29T07:24:19.981Z,71.44
2022-07-29T07:25:20.148Z,71.64
2022-07-29T07:26:20.274Z,71.44
2022-07-29T07:27:20.397Z,70.62
2022-07-29T07:28:24.910Z,70.83
2022-07-29T07:29:21.439Z,71.20
2022-07-29T07:30:21.436Z,71.13
2022-07-29T07:31:21.190Z,70.93
2022-07-29T07:32:21.336Z,71.30
2022-07-29T07:33:21.952Z,71.50
2022-07-29T07:34:28.153Z,70.79
2022-07-29T07:35:22.853Z,71.06
2022-07-29T07:36:21.978Z,71.16
2022-07-29T07:37:22.139Z,70.43
2022-07-29T07:38:22.290Z,68.95
2022-07-29T07:39:22.947Z,69.22
2022-07-29T07:40:23.592Z,70.03
2022-07-29T07:41:22.948Z,68.98
2022-07-29T07:42:23.947Z,69.06
2022-07-29T07:43:23.194Z,68.15
2022-07-29T07:44:24.308Z,67.47
2022-07-29T07:45:23.493Z,67.44
2022-07-29T07:46:24.017Z,68.35
2022-07-29T07:47:23.812Z,68.35
2022-07-29T07:48:23.985Z,68.41
2022-07-29T07:49:25.022Z,66.81
2022-07-29T07:50:24.337Z,67.28
2022-07-29T07:51:24.956Z,67.08
2022-07-29T07:52:25.445Z,67.55
2022-07-29T07:53:24.811Z,68.52
2022-07-29T07:54:25.946Z,68.42
2022-07-29T07:55:25.214Z,66.99
2022-07-29T07:56:25.399Z,66.18
2022-07-29T07:57:25.604Z,64.78
2022-07-29T07:58:26.447Z,65.75
2022-07-29T07:59:26.454Z,65.55
2022-07-29T08:00:26.139Z,65.95
2022-07-29T08:01:26.348Z,65.65
2022-07-29T08:02:26.984Z,65.62
2022-07-29T08:03:26.649Z,66.62
2022-07-29T08:04:28.868Z,66.32
2022-07-29T08:05:27.936Z,65.42
2022-07-29T08:06:27.950Z,64.62
2022-07-29T08:07:27.361Z,64.12
2022-07-29T08:08:27.482Z,64.48
2022-07-29T08:09:29.752Z,64.98
2022-07-29T08:10:28.891Z,65.48
2022-07-29T08:11:28.461Z,64.55
2022-07-29T08:12:29.181Z,64.18
2022-07-29T08:13:28.304Z,64.45
2022-07-29T08:14:28.441Z,64.86
2022-07-29T08:15:28.598Z,63.25
2022-07-29T08:16:28.824Z,64.18
2022-07-29T08:17:28.862Z,63.68
2022-07-29T08:18:29.949Z,63.89
2022-07-29T08:19:29.197Z,62.85
2022-07-29T08:20:29.964Z,63.85
2022-07-29T08:21:29.965Z,63.82
2022-07-29T08:22:30.467Z,63.49
2022-07-29T08:23:46.239Z,63.39
2022-07-29T08:24:32.958Z,63.26
2022-07-29T08:25:30.207Z,63.46
2022-07-29T08:26:30.391Z,62.93
2022-07-29T08:27:45.265Z,62.43
2022-07-29T08:28:32.688Z,61.73
2022-07-29T08:29:30.815Z,61.93
2022-07-29T08:30:30.992Z,61.63
2022-07-29T08:31:31.498Z,62.40
2022-07-29T08:32:52.736Z,63.00
2022-07-29T08:33:33.486Z,62.30
2022-07-29T08:34:31.727Z,61.38
2022-07-29T08:35:36.445Z,61.10
2022-07-29T08:36:33.031Z,61.60
2022-07-29T08:37:32.161Z,61.51
2022-07-29T08:38:32.364Z,61.10
2022-07-29T08:39:32.968Z,62.10
2022-07-29T08:40:32.923Z,62.18
2022-07-29T08:41:32.872Z,61.57
2022-07-29T08:42:33.969Z,62.27
2022-07-29T08:43:33.238Z,61.77
2022-07-29T08:44:33.967Z,62.54
2022-07-29T08:45:33.693Z,60.75
2022-07-29T08:46:33.759Z,60.55
2022-07-29T08:47:33.918Z,60.05
2022-07-29T08:48:34.113Z,60.75
2022-07-29T08:49:35.285Z,60.65
2022-07-29T08:50:34.970Z,59.55
2022-07-29T08:51:35.465Z,58.58
2022-07-29T08:52:35.761Z,60.00
2022-07-29T08:53:34.981Z,60.71
2022-07-29T08:54:35.166Z,61.30
2022-07-29T08:55:35.975Z,60.58
2022-07-29T08:56:35.517Z,61.18
2022-07-29T08:57:37.059Z,58.68
2022-07-29T08:58:36.699Z,59.98
2022-07-29T08:59:36.155Z,60.48
2022-07-29T09:00:36.974Z,61.55
2022-07-29T09:01:42.525Z,61.05
2022-07-29T09:02:37.596Z,60.05
2022-07-29T09:03:37.539Z,58.15
2022-07-29T09:04:36.846Z,58.45
2022-07-29T09:05:41.247Z,59.82
2022-07-29T09:06:39.480Z,59.35
2022-07-29T09:07:37.309Z,58.45
2022-07-29T09:08:37.442Z,58.62
2022-07-29T09:09:37.597Z,58.55
2022-07-29T09:10:38.484Z,58.53
2022-07-29T09:11:37.996Z,56.43
2022-07-29T09:12:38.977Z,57.56
2022-07-29T09:13:38.980Z,56.76
2022-07-29T09:14:38.462Z,57.68
2022-07-29T09:15:39.483Z,58.45
2022-07-29T09:16:52.646Z,58.45
2022-07-29T09:17:41.054Z,58.42
2022-07-29T09:18:39.212Z,56.43
2022-07-29T09:19:39.407Z,58.12
2022-07-29T09:20:40.549Z,57.63
2022-07-29T09:21:39.669Z,56.43
2022-07-29T09:22:42.081Z,57.93
2022-07-29T09:23:40.970Z,58.23
2022-07-29T09:24:40.491Z,56.03
2022-07-29T09:25:40.978Z,56.13
2022-07-29T09:26:40.486Z,56.90
2022-07-29T09:27:40.993Z,57.10
2022-07-29T09:28:41.480Z,58.40
2022-07-29T09:29:41.012Z,57.57
2022-07-29T09:30:41.162Z,57.07
2022-07-29T09:31:41.391Z,56.27
2022-07-29T09:32:41.464Z,55.78
2022-07-29T09:33:41.676Z,56.10
2022-07-29T09:34:42.004Z,54.91
2022-07-29T09:35:42.021Z,54.34
2022-07-29T09:36:43.143Z,56.03
2022-07-29T09:37:42.410Z,55.83
2022-07-29T09:38:42.570Z,56.33
2022-07-29T09:39:43.492Z,55.04
2022-07-29T09:40:42.887Z,55.51
2022-07-29T09:41:43.040Z,56.10
2022-07-29T09:42:43.230Z,56.08
2022-07-29T09:43:43.401Z,55.46
2022-07-29T09:44:44.552Z,54.75
2022-07-29T09:45:45.455Z,55.16
2022-07-29T09:46:44.000Z,55.53
2022-07-29T09:47:44.516Z,55.03
2022-07-29T09:48:45.030Z,54.73
2022-07-29T09:49:44.438Z,55.85
2022-07-29T09:50:44.624Z,55.18
2022-07-29T09:51:44.801Z,56.08
2022-07-29T09:52:44.995Z,55.55
2022-07-29T09:53:46.021Z,54.56
2022-07-29T09:54:45.281Z,53.69
2022-07-29T09:55:45.437Z,53.49
2022-07-29T09:56:45.645Z,53.89
2022-07-29T09:57:46.511Z,54.28
2022-07-29T09:58:47.025Z,53.99
2022-07-29T09:59:50.246Z,53.39
2022-07-29T10:00:46.526Z,53.71
2022-07-29T10:01:46.601Z,54.21
2022-07-29T10:02:46.749Z,54.38
2022-07-29T10:03:47.601Z,54.49
2022-07-29T10:04:47.162Z,56.18
2022-07-29T10:05:47.332Z,55.16
2022-07-29T10:06:47.503Z,54.36
2022-07-29T10:07:53.332Z,54.75
2022-07-29T10:08:50.496Z,54.83
2022-07-29T10:09:48.123Z,54.28
2022-07-29T10:10:48.508Z,54.88
2022-07-29T10:11:49.562Z,53.69
2022-07-29T10:12:49.512Z,54.41
2022-07-29T10:13:48.908Z,55.53
2022-07-29T10:14:49.087Z,56.99
2022-07-29T10:15:49.276Z,55.77
2022-07-29T10:16:50.002Z,54.35
2022-07-29T10:17:50.506Z,54.43
2022-07-29T10:18:49.869Z,54.43
2022-07-29T10:19:50.516Z,54.53
2022-07-29T10:20:51.006Z,55.02
2022-07-29T10:21:54.976Z,53.41
2022-07-29T10:22:53.919Z,53.23
2022-07-29T10:23:51.826Z,53.96
2022-07-29T10:24:50.971Z,54.75
2022-07-29T10:25:51.105Z,55.91
2022-07-29T10:26:52.003Z,55.32
2022-07-29T10:27:51.531Z,53.44
2022-07-29T10:28:52.032Z,53.33
2022-07-29T10:29:52.517Z,54.13
2022-07-29T10:30:52.519Z,54.95
2022-07-29T10:31:53.158Z,54.28
2022-07-29T10:32:54.205Z,56.57
2022-07-29T10:33:53.585Z,57.36
2022-07-29T10:34:53.505Z,55.57
2022-07-29T10:35:52.927Z,55.87
2022-07-29T10:36:53.069Z,55.67
2022-07-29T10:37:53.207Z,57.26
2022-07-29T10:38:53.455Z,56.47
2022-07-29T10:39:53.610Z,55.90
2022-07-29T10:40:54.956Z,56.52
2022-07-29T10:41:54.288Z,56.05
2022-07-29T10:42:55.011Z,56.05
2022-07-29T10:43:54.267Z,57.37
2022-07-29T10:44:54.491Z,57.67
2022-07-29T10:45:54.684Z,58.76
2022-07-29T10:46:54.923Z,56.21
2022-07-29T10:47:55.000Z,58.27
2022-07-29T10:48:56.064Z,58.57
2022-07-29T10:49:55.353Z,58.47
2022-07-29T10:50:56.009Z,58.57
2022-07-29T10:51:56.226Z,59.36
2022-07-29T10:52:56.516Z,58.37
2022-07-29T10:53:56.010Z,58.76
2022-07-29T10:54:56.249Z,58.07
2022-07-29T10:55:56.394Z,56.27
2022-07-29T10:56:57.028Z,58.40
2022-07-29T10:57:56.714Z,57.97
2022-07-29T10:58:56.891Z,58.87
2022-07-29T10:59:58.017Z,58.17
2022-07-29T11:00:57.665Z,58.97
2022-07-29T11:02:10.876Z,57.77
2022-07-29T11:02:59.684Z,58.29
2022-07-29T11:03:57.729Z,58.29
2022-07-29T11:04:58.524Z,56.40
2022-07-29T11:05:59.389Z,58.12
2022-07-29T11:06:58.235Z,58.33
2022-07-29T11:07:58.342Z,58.72
2022-07-29T11:08:58.540Z,58.45
2022-07-29T11:09:58.683Z,58.33
2022-07-29T11:10:59.523Z,58.72
2022-07-29T11:12:00.553Z,58.55
2022-07-29T11:12:59.183Z,57.95
2022-07-29T11:13:59.353Z,58.25
2022-07-29T11:14:59.524Z,59.78
2022-07-29T11:15:59.658Z,60.28
2022-07-29T11:16:59.908Z,59.65
2022-07-29T11:18:01.026Z,60.35
2022-07-29T11:19:00.260Z,59.55
2022-07-29T11:20:00.539Z,59.55
2022-07-29T11:21:01.523Z,58.95
2022-07-29T11:22:01.028Z,59.65
2022-07-29T11:23:01.526Z,58.92
2022-07-29T11:24:01.131Z,59.62
2022-07-29T11:25:01.392Z,58.72
2022-07-29T11:26:02.066Z,58.59
2022-07-29T11:27:02.775Z,59.39
2022-07-29T11:28:01.865Z,59.59
2022-07-29T11:29:02.532Z,58.92
2022-07-29T11:30:02.174Z,58.59
2022-07-29T11:31:02.418Z,59.42
2022-07-29T11:32:02.608Z,59.42
2022-07-29T11:33:02.833Z,59.42
2022-07-29T11:35:16.833Z,59.12
2022-07-29T11:36:04.271Z,58.59
2022-07-29T11:37:03.502Z,58.70
2022-07-29T11:38:04.046Z,59.69
2022-07-29T11:39:03.801Z,60.09
2022-07-29T11:40:03.996Z,59.49
2022-07-29T11:41:04.207Z,58.50
2022-07-29T11:42:13.577Z,59.79
2022-07-29T11:43:07.406Z,59.09
2022-07-29T11:44:05.046Z,59.69
2022-07-29T11:45:42.174Z,59.39
2022-07-29T11:46:06.126Z,60.09
2022-07-29T11:47:05.320Z,59.99
2022-07-29T11:48:29.821Z,59.59
2022-07-29T11:49:09.214Z,60.36
2022-07-29T11:50:06.066Z,60.66
2022-07-29T11:51:06.027Z,60.56
2022-07-29T11:52:07.037Z,58.54
2022-07-29T11:53:08.750Z,57.97
2022-07-29T11:54:06.650Z,57.87
2022-07-29T11:55:09.810Z,58.37
2022-07-29T11:56:07.081Z,56.85
2022-07-29T11:57:08.068Z,57.37
2022-07-29T11:58:08.039Z,56.77
2022-07-29T12:00:12.263Z,58.47
2022-07-29T12:01:08.050Z,58.50
2022-07-29T12:02:36.214Z,58.50
2022-07-29T12:03:10.310Z,58.29
2022-07-29T12:04:08.581Z,58.59
2022-07-29T12:06:10.011Z,58.10
2022-07-29T12:07:01.564Z,59.30
2022-07-29T12:07:02.430Z,57.54
2022-07-29T12:07:02.572Z,58.80
2022-07-29T12:07:09.130Z,58.40
2022-07-29T12:08:12.407Z,58.50
2022-07-29T12:09:11.196Z,59.77
2022-07-29T12:10:11.322Z,59.53
2022-07-29T12:11:10.788Z,58.41
2022-07-29T12:12:10.061Z,56.42
2022-07-29T12:13:11.040Z,56.42
2022-07-29T12:14:10.330Z,56.79
2022-07-29T12:15:10.554Z,57.29
2022-07-29T12:16:10.796Z,56.99
2022-07-29T12:17:10.982Z,57.62
2022-07-29T12:18:11.079Z,58.31
2022-07-29T12:19:12.044Z,56.75
2022-07-29T12:20:12.430Z,57.54
2022-07-29T12:21:12.548Z,57.64
2022-07-29T12:22:12.059Z,58.34
2022-07-29T12:23:12.035Z,59.11
2022-07-29T12:24:12.265Z,57.42
2022-07-29T12:25:33.741Z,57.02
2022-07-29T12:26:21.797Z,57.22
2022-07-29T12:27:13.796Z,57.42
2022-07-29T12:28:14.152Z,56.62
2022-07-29T12:29:15.689Z,57.82
2022-07-29T12:30:14.563Z,58.88
2022-07-29T12:31:13.597Z,58.78
2022-07-29T12:32:14.470Z,58.41
2022-07-29T12:33:14.950Z,58.31
2022-07-29T12:34:15.051Z,59.51
2022-07-29T12:35:14.571Z,57.71
2022-07-29T12:36:17.936Z,57.94
2022-07-29T12:37:16.551Z,58.54
2022-07-29T12:38:15.017Z,58.67
2022-07-29T12:39:15.165Z,59.47
2022-07-29T12:40:15.271Z,60.26
2022-07-29T12:41:16.056Z,59.27
2022-07-29T12:42:18.540Z,59.47
2022-07-29T12:43:16.559Z,59.89
2022-07-29T12:44:15.812Z,60.89
2022-07-29T12:45:16.068Z,61.69
2022-07-29T12:46:16.606Z,60.19
2022-07-29T12:47:17.060Z,59.59
2022-07-29T12:48:17.063Z,59.89
2022-07-29T12:49:17.080Z,60.22
2022-07-29T12:50:16.720Z,60.72
2022-07-29T12:51:17.560Z,60.92
2022-07-29T12:52:17.031Z,60.62
2022-07-29T12:53:18.062Z,60.75
2022-07-29T12:54:17.297Z,61.44
2022-07-29T12:55:17.573Z,62.64